createdAt,value
2018-08-18T00:00:21.420Z,76.29
2018-08-18T00:02:50.357Z,76.00
2018-08-18T00:05:19.574Z,76.26
2018-08-18T00:07:48.861Z,75.75
2018-08-18T00:10:22.427Z,76.15
2018-08-18T00:12:51.600Z,76.99
2018-08-18T00:15:21.211Z,77.16
2018-08-18T00:17:50.129Z,77.53
2018-08-18T00:20:21.233Z,77.74
2018-08-18T00:22:50.270Z,76.94
2018-08-18T00:25:19.272Z,77.29
2018-08-18T00:27:49.712Z,77.23
2018-08-18T00:30:23.896Z,77.57
2018-08-18T00:32:54.132Z,78.17
2018-08-18T00:35:23.357Z,78.39
2018-08-18T00:37:52.625Z,78.69
2018-08-18T00:40:22.564Z,78.47
2018-08-18T00:42:51.757Z,77.85
2018-08-18T00:45:20.849Z,77.94
2018-08-18T00:47:51.228Z,78.15
2018-08-18T00:50:34.104Z,79.46
2018-08-18T00:53:03.732Z,79.18
2018-08-18T00:55:32.788Z,79.67
2018-08-18T00:58:01.667Z,80.17
2018-08-18T01:00:30.725Z,79.89
2018-08-18T01:03:00.930Z,81.03
2018-08-18T01:05:30.009Z,81.52
2018-08-18T01:07:59.139Z,81.88
2018-08-18T01:10:29.059Z,81.21
2018-08-18T01:12:58.771Z,81.41
2018-08-18T01:15:29.353Z,82.31
2018-08-18T01:17:58.765Z,83.62
2018-08-18T01:20:27.728Z,83.77
2018-08-18T01:23:00.242Z,84.12
2018-08-18T01:25:30.043Z,83.93
2018-08-18T01:27:59.946Z,84.69
2018-08-18T01:30:29.152Z,84.23
2018-08-18T01:32:58.155Z,83.69
2018-08-18T01:35:27.069Z,82.01
2018-08-18T01:37:55.958Z,82.28
2018-08-18T01:40:25.021Z,81.61
2018-08-18T01:42:53.822Z,81.63
2018-08-18T01:45:23.314Z,81.38
2018-08-18T01:47:52.337Z,81.91
2018-08-18T01:50:21.517Z,82.65
2018-08-18T01:52:50.846Z,82.41
2018-08-18T01:55:19.915Z,82.16
2018-08-18T01:57:49.327Z,82.10
2018-08-18T02:00:26.630Z,83.61
2018-08-18T02:02:55.606Z,84.08
2018-08-18T02:05:24.909Z,85.17
2018-08-18T02:07:54.755Z,85.07
2018-08-18T02:10:23.624Z,85.33
2018-08-18T02:13:02.400Z,85.60
2018-08-18T02:15:31.919Z,85.16
2018-08-18T02:18:00.848Z,85.20
2018-08-18T02:20:30.361Z,85.42
2018-08-18T02:22:59.794Z,85.84
2018-08-18T02:25:28.547Z,86.55
2018-08-18T02:27:57.627Z,85.67
2018-08-18T02:30:26.526Z,85.55
2018-08-18T02:32:55.503Z,85.59
2018-08-18T02:35:24.986Z,85.93
2018-08-18T02:37:54.124Z,86.01
2018-08-18T02:40:23.627Z,85.88
2018-08-18T02:42:52.783Z,85.95
2018-08-18T02:45:21.743Z,86.71
2018-08-18T02:48:04.335Z,87.56
2018-08-18T02:50:33.590Z,87.16
2018-08-18T02:53:07.094Z,87.33
2018-08-18T02:55:35.805Z,87.60
2018-08-18T02:58:04.542Z,87.65
2018-08-18T03:00:35.395Z,87.24
2018-08-18T03:03:04.867Z,86.17
2018-08-18T03:05:35.474Z,85.75
2018-08-18T03:08:04.710Z,85.38
2018-08-18T03:10:33.971Z,86.26
2018-08-18T03:13:03.601Z,87.07
2018-08-18T03:16:12.272Z,87.06
2018-08-18T03:18:56.880Z,87.72
2018-08-18T03:21:31.727Z,88.78
2018-08-18T03:24:12.282Z,88.59
2018-08-18T03:26:49.446Z,88.01
2018-08-18T03:29:19.196Z,88.48
2018-08-18T03:31:48.481Z,88.58
2018-08-18T03:34:17.918Z,88.25
2018-08-18T03:36:49.359Z,88.10
2018-08-18T03:39:27.336Z,87.91
2018-08-18T03:42:01.561Z,88.28
2018-08-18T03:44:31.030Z,86.83
2018-08-18T03:47:00.071Z,86.38
2018-08-18T03:49:29.421Z,86.12
2018-08-18T03:51:59.399Z,85.57
2018-08-18T03:54:28.366Z,84.42
2018-08-18T03:56:57.171Z,83.47
2018-08-18T03:59:26.204Z,82.58
2018-08-18T04:01:59.694Z,81.37
2018-08-18T04:04:31.684Z,80.78
2018-08-18T04:07:01.703Z,80.70
2018-08-18T04:09:36.521Z,81.18
2018-08-18T04:12:07.832Z,82.21
2018-08-18T04:14:39.369Z,83.34
2018-08-18T04:17:39.236Z,82.19
2018-08-18T04:20:08.624Z,79.57
2018-08-18T04:22:38.528Z,75.67
2018-08-18T04:25:07.660Z,72.18
2018-08-18T04:27:42.752Z,69.35
2018-08-18T04:30:17.471Z,65.35
2018-08-18T04:32:53.992Z,62.33
2018-08-18T04:35:24.121Z,59.83
2018-08-18T04:37:53.897Z,57.98
2018-08-18T04:40:23.419Z,55.36
2018-08-18T04:42:52.280Z,55.20
2018-08-18T04:45:22.443Z,53.93
2018-08-18T04:47:51.345Z,52.43
2018-08-18T04:50:21.224Z,51.39
2018-08-18T04:52:51.767Z,52.31
2018-08-18T04:55:21.046Z,53.38
2018-08-18T04:57:50.028Z,54.28
2018-08-18T05:00:19.062Z,57.15
2018-08-18T05:02:55.010Z,61.18
2018-08-18T05:05:26.951Z,62.24
2018-08-18T05:07:56.782Z,64.16
2018-08-18T05:10:25.668Z,65.17
2018-08-18T05:12:54.663Z,63.90
2018-08-18T05:15:24.319Z,61.30
2018-08-18T05:17:53.339Z,60.42
2018-08-18T05:20:24.276Z,57.89
2018-08-18T05:22:54.095Z,55.40
2018-08-18T05:25:29.106Z,51.88
2018-08-18T05:27:59.227Z,48.32
2018-08-18T05:30:28.214Z,46.78
2018-08-18T05:32:57.275Z,44.42
2018-08-18T05:35:26.406Z,42.15
2018-08-18T05:37:55.247Z,40.39
2018-08-18T05:40:24.257Z,40.24
2018-08-18T05:42:53.286Z,39.58
2018-08-18T05:45:30.428Z,41.13
2018-08-18T05:47:59.443Z,39.67
2018-08-18T05:50:29.475Z,38.17
2018-08-18T05:53:24.321Z,37.84
2018-08-18T05:55:53.099Z,37.24
2018-08-18T05:58:22.606Z,35.62
2018-08-18T06:01:27.324Z,34.46
2018-08-18T06:04:01.183Z,32.79
2018-08-18T06:06:30.187Z,32.47
2018-08-18T06:08:59.556Z,32.14
2018-08-18T06:11:29.447Z,31.43
2018-08-18T06:13:59.925Z,31.13
2018-08-18T06:16:29.095Z,32.90
2018-08-18T06:18:57.918Z,32.67
2018-08-18T06:21:27.119Z,32.03
2018-08-18T06:23:56.640Z,31.52
2018-08-18T06:26:27.031Z,30.76
2018-08-18T06:28:56.481Z,31.03
2018-08-18T06:31:25.418Z,29.81
2018-08-18T06:33:54.531Z,29.41
2018-08-18T06:36:23.884Z,30.39
2018-08-18T06:38:53.661Z,29.44
2018-08-18T06:41:23.114Z,29.65
2018-08-18T06:43:52.092Z,28.82
2018-08-18T06:46:21.542Z,28.86
2018-08-18T06:48:51.685Z,29.35
2018-08-18T06:51:21.103Z,30.75
2018-08-18T06:53:50.291Z,29.10
2018-08-18T06:56:19.902Z,29.13
2018-08-18T06:58:50.238Z,29.12
2018-08-18T07:01:18.953Z,27.93
2018-08-18T07:03:48.239Z,28.46
2018-08-18T07:06:18.127Z,27.68
2018-08-18T07:08:52.988Z,29.86
2018-08-18T07:11:22.107Z,28.85
2018-08-18T07:13:50.852Z,28.82
2018-08-18T07:16:19.546Z,29.34
2018-08-18T07:18:48.268Z,29.26
2018-08-18T07:21:17.043Z,29.64
2018-08-18T07:23:45.766Z,28.01
2018-08-18T07:26:14.543Z,29.67
2018-08-18T07:28:43.451Z,28.87
2018-08-18T07:31:12.176Z,29.15
2018-08-18T07:33:41.089Z,28.49
2018-08-18T07:36:09.706Z,26.97
2018-08-18T07:38:38.468Z,26.17
2018-08-18T07:41:07.683Z,26.14
2018-08-18T07:43:36.334Z,25.65
2018-08-18T07:46:07.391Z,24.76
2018-08-18T07:48:36.502Z,23.98
2018-08-18T07:51:05.290Z,24.58
2018-08-18T07:53:34.093Z,26.30
2018-08-18T07:56:02.876Z,25.85
2018-08-18T07:58:31.622Z,27.11
2018-08-18T08:01:00.874Z,27.78
2018-08-18T08:03:29.636Z,27.84
2018-08-18T08:05:58.390Z,28.74
2018-08-18T08:08:34.812Z,28.11
2018-08-18T08:11:08.924Z,27.78
2018-08-18T08:13:38.123Z,26.78
2018-08-18T08:16:06.859Z,27.19
2018-08-18T08:18:36.491Z,26.53
2018-08-18T08:21:06.114Z,28.04
2018-08-18T08:23:35.203Z,26.49
2018-08-18T08:26:04.199Z,25.48
2018-08-18T08:28:33.249Z,27.83
2018-08-18T08:31:02.606Z,29.52
2018-08-18T08:36:08.602Z,29.64
2018-08-18T08:38:50.089Z,29.68
2018-08-18T08:41:19.135Z,30.91
2018-08-18T08:43:49.187Z,31.32
2018-08-18T08:46:19.205Z,30.44
2018-08-18T08:48:55.203Z,31.33
2018-08-18T08:51:24.787Z,31.15
2018-08-18T08:53:55.766Z,32.03
2018-08-18T08:56:44.984Z,31.82
2018-08-18T08:59:14.055Z,31.51
2018-08-18T09:01:43.286Z,32.97
2018-08-18T09:04:12.007Z,33.42
2018-08-18T09:06:45.842Z,33.65
2018-08-18T09:09:15.694Z,33.82
2018-08-18T09:11:44.779Z,32.75
2018-08-18T09:14:13.550Z,34.61
2018-08-18T09:16:43.210Z,34.64
2018-08-18T09:19:12.178Z,33.20
2018-08-18T09:21:46.331Z,33.48
2018-08-18T09:24:16.103Z,34.13
2018-08-18T09:26:58.675Z,33.77
2018-08-18T09:29:29.335Z,33.58
2018-08-18T09:31:58.762Z,33.38
2018-08-18T09:34:28.410Z,33.33
2018-08-18T09:36:57.556Z,33.21
2018-08-18T09:39:33.859Z,31.80
2018-08-18T09:42:05.427Z,31.08
2018-08-18T09:44:37.298Z,31.43
2018-08-18T09:47:06.764Z,31.07
2018-08-18T09:49:35.633Z,31.74
2018-08-18T09:52:04.880Z,31.89
2018-08-18T09:54:34.357Z,31.37
2018-08-18T09:57:04.157Z,32.29
2018-08-18T09:59:33.399Z,31.31
2018-08-18T10:02:02.520Z,31.82
2018-08-18T10:04:31.316Z,32.71
2018-08-18T10:07:00.157Z,32.97
2018-08-18T10:09:28.895Z,33.62
2018-08-18T10:11:57.827Z,34.00
2018-08-18T10:14:26.754Z,34.48
2018-08-18T10:16:55.907Z,33.81
2018-08-18T10:19:25.316Z,34.49
2018-08-18T10:21:55.167Z,33.80
2018-08-18T10:24:24.631Z,33.58
2018-08-18T10:26:58.825Z,34.04
2018-08-18T10:29:27.546Z,32.88
2018-08-18T10:31:58.488Z,34.17
2018-08-18T10:34:28.786Z,34.35
2018-08-18T10:37:03.022Z,34.24
2018-08-18T10:39:32.626Z,34.46
2018-08-18T10:42:09.202Z,33.37
2018-08-18T10:44:38.246Z,34.13
2018-08-18T10:47:11.585Z,33.41
2018-08-18T10:49:51.670Z,33.39
2018-08-18T10:52:32.623Z,34.83
2018-08-18T10:55:04.131Z,34.51
2018-08-18T10:57:44.942Z,34.45
2018-08-18T11:00:15.660Z,33.05
2018-08-18T11:02:46.336Z,32.84
2018-08-18T11:05:15.848Z,33.54
2018-08-18T11:07:50.590Z,34.71
2018-08-18T11:10:20.057Z,34.92
2018-08-18T11:12:48.871Z,34.81
2018-08-18T11:15:17.782Z,35.90
2018-08-18T11:17:46.836Z,36.66
2018-08-18T11:20:25.270Z,35.57
2018-08-18T11:23:11.860Z,36.13
2018-08-18T11:25:46.042Z,36.87
2018-08-18T11:28:15.843Z,36.49
2018-08-18T11:30:44.776Z,36.90
2018-08-18T11:33:45.847Z,34.88
2018-08-18T11:36:15.408Z,35.21
2018-08-18T11:38:44.438Z,36.28
2018-08-18T11:41:14.183Z,35.46
2018-08-18T11:43:46.827Z,34.39
2018-08-18T11:46:16.027Z,34.39
2018-08-18T11:48:45.214Z,33.72
2018-08-18T11:51:14.215Z,33.79
2018-08-18T11:53:56.869Z,32.71
2018-08-18T11:56:25.925Z,33.56
2018-08-18T11:59:07.894Z,33.76
2018-08-18T12:01:38.371Z,34.92
2018-08-18T12:04:07.573Z,34.35
2018-08-18T12:06:42.165Z,35.36
2018-08-18T12:09:12.080Z,35.20
2018-08-18T12:11:42.598Z,35.13
2018-08-18T12:14:11.658Z,34.25
2018-08-18T12:16:40.654Z,33.18
2018-08-18T12:19:09.331Z,32.17
2018-08-18T12:21:45.339Z,31.67
2018-08-18T12:24:17.853Z,30.98
2018-08-18T12:26:57.485Z,32.19
2018-08-18T12:29:26.922Z,31.55
2018-08-18T12:31:55.577Z,31.17
2018-08-18T12:34:24.515Z,31.20
2018-08-18T12:36:53.466Z,32.29
2018-08-18T12:39:22.862Z,31.23
2018-08-18T12:41:51.906Z,31.31
2018-08-18T12:44:26.323Z,31.20
2018-08-18T12:46:55.590Z,29.69
2018-08-18T12:49:26.008Z,29.07
2018-08-18T12:51:55.163Z,27.48
2018-08-18T12:54:24.754Z,30.33
2018-08-18T12:56:54.299Z,31.17
2018-08-18T12:59:23.320Z,32.49
2018-08-18T13:01:52.260Z,32.79
2018-08-18T13:04:22.165Z,33.46
2018-08-18T13:06:53.303Z,33.16
2018-08-18T13:09:24.254Z,33.24
2018-08-18T13:11:54.637Z,33.64
2018-08-18T13:14:27.141Z,32.74
2018-08-18T13:16:55.919Z,32.99
2018-08-18T13:19:26.671Z,33.79
2018-08-18T13:21:55.648Z,34.20
2018-08-18T13:24:24.426Z,34.59
2018-08-18T13:26:53.491Z,34.90
2018-08-18T13:29:22.316Z,34.32
2018-08-18T13:31:51.445Z,34.27
2018-08-18T13:34:20.263Z,34.40
2018-08-18T13:36:49.297Z,34.01
2018-08-18T13:39:19.647Z,33.07
2018-08-18T13:41:49.596Z,33.64
2018-08-18T13:44:26.971Z,34.25
2018-08-18T13:46:55.930Z,34.60
2018-08-18T13:49:25.812Z,35.39
2018-08-18T13:51:54.546Z,35.47
2018-08-18T13:54:23.348Z,36.13
2018-08-18T13:56:52.194Z,35.20
2018-08-18T13:59:35.799Z,34.72
2018-08-18T14:02:04.631Z,34.54
2018-08-18T14:04:33.429Z,35.04
2018-08-18T14:07:02.634Z,35.71
2018-08-18T14:09:31.694Z,35.04
2018-08-18T14:12:06.548Z,35.66
2018-08-18T14:14:36.067Z,34.30
2018-08-18T14:17:05.574Z,34.56
2018-08-18T14:19:35.189Z,35.33
2018-08-18T14:22:08.462Z,34.37
2018-08-18T14:24:38.615Z,34.07
2018-08-18T14:27:16.595Z,35.38
2018-08-18T14:29:46.152Z,35.17
2018-08-18T14:32:20.230Z,36.28
2018-08-18T14:34:55.303Z,36.02
2018-08-18T14:37:24.971Z,35.64
2018-08-18T14:39:54.273Z,35.67
2018-08-18T14:42:23.477Z,36.38
2018-08-18T14:44:53.380Z,37.66
2018-08-18T14:47:22.247Z,37.28
2018-08-18T14:49:53.850Z,38.20
2018-08-18T14:52:22.623Z,37.75
2018-08-18T14:54:51.297Z,37.88
2018-08-18T14:57:20.236Z,37.86
2018-08-18T14:59:49.031Z,37.72
2018-08-18T15:02:17.950Z,37.06
2018-08-18T15:04:47.150Z,38.18
2018-08-18T15:07:16.076Z,37.61
2018-08-18T15:09:45.970Z,37.46
2018-08-18T15:12:15.302Z,38.25
2018-08-18T15:14:44.974Z,37.63
2018-08-18T15:17:13.679Z,38.10
2018-08-18T15:19:42.421Z,37.57
2018-08-18T15:22:12.708Z,37.62
2018-08-18T15:24:41.805Z,38.51
2018-08-18T15:27:10.922Z,39.22
2018-08-18T15:29:39.668Z,39.99
2018-08-18T15:32:09.139Z,40.36
2018-08-18T15:34:38.316Z,39.09
2018-08-18T15:37:08.195Z,39.69
2018-08-18T15:39:36.920Z,40.44
2018-08-18T15:42:05.750Z,40.06
2018-08-18T15:44:37.822Z,41.35
2018-08-18T15:47:06.596Z,41.73
2018-08-18T15:49:35.363Z,41.27
2018-08-18T15:52:04.131Z,41.64
2018-08-18T15:54:33.118Z,41.99
2018-08-18T15:57:01.895Z,41.12
2018-08-18T15:59:30.523Z,42.11
2018-08-18T16:01:59.257Z,42.04
2018-08-18T16:04:28.102Z,42.04
2018-08-18T16:06:56.972Z,42.16
2018-08-18T16:09:25.620Z,42.31
2018-08-18T16:11:54.325Z,42.31
2018-08-18T16:14:23.078Z,42.67
2018-08-18T16:17:00.203Z,42.43
2018-08-18T16:19:31.819Z,43.03
2018-08-18T16:22:01.100Z,43.24
2018-08-18T16:24:39.560Z,43.21
2018-08-18T16:27:08.607Z,43.24
2018-08-18T16:29:37.998Z,43.60
2018-08-18T16:32:18.964Z,42.84
2018-08-18T16:34:48.969Z,43.31
2018-08-18T16:37:17.660Z,42.78
2018-08-18T16:39:46.583Z,42.99
2018-08-18T16:42:15.434Z,43.23
2018-08-18T16:44:44.098Z,43.02
2018-08-18T16:47:12.851Z,43.48
2018-08-18T16:49:41.535Z,43.68
2018-08-18T16:52:10.327Z,43.95
2018-08-18T16:54:39.827Z,44.12
2018-08-18T16:57:08.886Z,44.25
2018-08-18T16:59:38.499Z,44.52
2018-08-18T17:02:13.611Z,44.61
2018-08-18T17:04:42.535Z,44.92
2018-08-18T17:07:16.597Z,44.89
2018-08-18T17:09:45.434Z,44.50
2018-08-18T17:12:22.374Z,44.88
2018-08-18T17:14:51.119Z,45.63
2018-08-18T17:17:21.928Z,45.29
2018-08-18T17:19:50.692Z,45.60
2018-08-18T17:22:19.558Z,46.15
2018-08-18T17:24:48.427Z,46.28
2018-08-18T17:27:17.208Z,46.06
2018-08-18T17:29:47.622Z,46.64
2018-08-18T17:32:16.291Z,46.56
2018-08-18T17:34:45.334Z,46.71
2018-08-18T17:37:14.219Z,46.46
2018-08-18T17:39:42.958Z,47.16
2018-08-18T17:42:11.707Z,46.71
2018-08-18T17:44:40.386Z,47.32
2018-08-18T17:47:10.402Z,47.72
2018-08-18T17:50:13.568Z,47.44
2018-08-18T17:52:42.610Z,47.42
2018-08-18T17:55:16.291Z,48.06
2018-08-18T17:57:45.059Z,48.34
2018-08-18T18:00:16.894Z,48.58
2018-08-18T18:02:51.486Z,48.76
2018-08-18T18:05:22.666Z,48.61
2018-08-18T18:07:55.314Z,49.42
2018-08-18T18:10:27.018Z,49.44
2018-08-18T18:12:55.774Z,50.27
2018-08-18T18:15:28.086Z,50.29
2018-08-18T18:17:56.913Z,50.91
2018-08-18T18:20:28.738Z,51.00
2018-08-18T18:22:57.793Z,51.69
2018-08-18T18:25:26.493Z,51.83
2018-08-18T18:27:55.292Z,52.04
2018-08-18T18:30:27.555Z,51.79
2018-08-18T18:32:57.156Z,52.26
2018-08-18T18:35:26.199Z,52.75
2018-08-18T18:37:58.451Z,52.83
2018-08-18T18:40:27.242Z,52.62
2018-08-18T18:42:56.010Z,53.02
2018-08-18T18:45:26.095Z,53.69
2018-08-18T18:47:54.839Z,53.66
2018-08-18T18:50:23.601Z,53.93
2018-08-18T18:52:52.322Z,53.78
2018-08-18T18:55:22.464Z,54.01
2018-08-18T18:58:03.277Z,54.16
2018-08-18T19:00:34.059Z,54.13
2018-08-18T19:03:03.222Z,54.11
2018-08-18T19:05:33.238Z,54.21
2018-08-18T19:08:21.570Z,54.18
2018-08-18T19:10:50.577Z,54.43
2018-08-18T19:13:20.107Z,54.87
2018-08-18T19:15:49.126Z,55.02
2018-08-18T19:18:18.163Z,54.85
2018-08-18T19:20:47.115Z,55.36
2018-08-18T19:23:19.947Z,55.52
2018-08-18T19:25:50.872Z,55.35
2018-08-18T19:28:22.508Z,55.02
2018-08-18T19:30:52.094Z,55.40
2018-08-18T19:33:21.413Z,54.96
2018-08-18T19:35:52.054Z,55.19
2018-08-18T19:38:21.963Z,55.56
2018-08-18T19:40:54.334Z,56.34
2018-08-18T19:43:26.413Z,56.22
2018-08-18T19:45:56.360Z,56.76
2018-08-18T19:48:27.599Z,56.68
2018-08-18T19:51:01.641Z,57.03
2018-08-18T19:53:31.884Z,56.84
2018-08-18T19:56:01.519Z,56.64
2018-08-18T19:58:30.719Z,57.64
2018-08-18T20:00:59.860Z,57.35
2018-08-18T20:03:29.020Z,57.30
2018-08-18T20:05:58.158Z,57.00
2018-08-18T20:08:28.000Z,57.62
2018-08-18T20:10:58.340Z,57.58
2018-08-18T20:13:28.707Z,57.44
2018-08-18T20:16:00.014Z,57.51
2018-08-18T20:18:29.494Z,57.99
2018-08-18T20:20:59.332Z,58.00
2018-08-18T20:23:28.130Z,59.09
2018-08-18T20:25:57.367Z,59.45
2018-08-18T20:28:26.430Z,59.96
2018-08-18T20:30:55.531Z,59.94
2018-08-18T20:33:24.512Z,60.27
2018-08-18T20:35:53.945Z,60.36
2018-08-18T20:38:22.987Z,60.76
2018-08-18T20:40:52.344Z,60.83
2018-08-18T20:43:21.296Z,60.97
2018-08-18T20:45:50.712Z,60.98
2018-08-18T20:48:22.445Z,60.62
2018-08-18T20:50:51.867Z,61.06
2018-08-18T20:53:21.499Z,61.31
2018-08-18T20:56:03.140Z,61.17
2018-08-18T20:58:35.102Z,61.08
2018-08-18T21:01:04.387Z,61.73
2018-08-18T21:03:47.039Z,61.79
2018-08-18T21:06:16.986Z,62.12
2018-08-18T21:08:46.059Z,62.81
2018-08-18T21:11:15.139Z,62.88
2018-08-18T21:13:47.369Z,63.61
2018-08-18T21:16:16.891Z,63.41
2018-08-18T21:18:45.819Z,63.95
2018-08-18T21:21:32.427Z,63.80
2018-08-18T21:24:01.319Z,64.48
2018-08-18T21:26:30.513Z,64.48
2018-08-18T21:28:59.664Z,64.98
2018-08-18T21:31:34.731Z,64.83
2018-08-18T21:34:04.899Z,64.79
2018-08-18T21:36:34.323Z,65.48
2018-08-18T21:39:06.863Z,64.85
2018-08-18T21:41:39.554Z,66.04
2018-08-18T21:44:10.246Z,66.08
2018-08-18T21:46:39.686Z,66.20
2018-08-18T21:49:08.914Z,66.48
2018-08-18T21:51:37.794Z,67.06
2018-08-18T21:54:06.863Z,67.08
2018-08-18T21:56:38.558Z,67.10
2018-08-18T21:59:09.051Z,67.34
2018-08-18T22:01:38.079Z,67.05
2018-08-18T22:04:07.582Z,66.83
2018-08-18T22:06:36.555Z,66.97
2018-08-18T22:09:19.949Z,68.24
2018-08-18T22:11:48.826Z,68.25
2018-08-18T22:14:18.524Z,68.74
2018-08-18T22:16:55.076Z,68.70
2018-08-18T22:19:23.969Z,69.05
2018-08-18T22:21:52.913Z,69.09
2018-08-18T22:24:23.169Z,69.32
2018-08-18T22:26:52.374Z,68.80
2018-08-18T22:29:26.206Z,68.01
2018-08-18T22:31:55.482Z,68.75
2018-08-18T22:34:24.475Z,69.14
2018-08-18T22:37:00.949Z,69.61
2018-08-18T22:39:29.954Z,69.76
2018-08-18T22:41:59.553Z,69.59
2018-08-18T22:44:29.003Z,68.96
2018-08-18T22:46:58.018Z,68.78
2018-08-18T22:49:27.230Z,68.88
2018-08-18T22:51:56.198Z,69.08
2018-08-18T22:54:25.473Z,69.20
2018-08-18T22:56:59.683Z,69.38
2018-08-18T22:59:28.659Z,69.26
2018-08-18T23:01:57.440Z,69.34
2018-08-18T23:04:33.980Z,69.53
2018-08-18T23:07:04.534Z,69.94
2018-08-18T23:09:33.307Z,70.46
2018-08-18T23:12:04.246Z,71.46
2018-08-18T23:14:34.813Z,71.21
2018-08-18T23:17:03.939Z,70.39
2018-08-18T23:19:34.235Z,70.84
2018-08-18T23:22:03.518Z,70.42
2018-08-18T23:24:34.854Z,70.89
2018-08-18T23:27:04.120Z,70.86
2018-08-18T23:29:32.968Z,70.82
2018-08-18T23:32:13.365Z,70.59
2018-08-18T23:34:42.231Z,71.09
2018-08-18T23:37:15.723Z,71.34
2018-08-18T23:39:45.232Z,71.36
2018-08-18T23:42:16.095Z,72.10
2018-08-18T23:44:45.240Z,72.50
2018-08-18T23:47:14.157Z,72.93
2018-08-18T23:49:44.118Z,73.06
2018-08-18T23:52:13.723Z,73.07
2018-08-18T23:54:42.462Z,72.64
2018-08-18T23:57:11.817Z,72.67
2018-08-18T23:59:41.390Z,72.92
